sensor_id;sensor_type;location;lat;lon;timestamp;temperature;humidity
3156;DHT22;1588;50.892;7.082;2023-03-03T00:01:51;-0.60;99.90
3156;DHT22;1588;50.892;7.082;2023-03-03T00:06:55;-0.70;99.90
3156;DHT22;1588;50.892;7.082;2023-03-03T00:11:59;-0.70;99.90
3156;DHT22;1588;50.892;7.082;2023-03-03T00:17:17;-0.70;99.90
3156;DHT22;1588;50.892;7.082;2023-03-03T00:22:27;-0.80;99.90
3156;DHT22;1588;50.892;7.082;2023-03-03T00:27:34;-0.80;99.90
3156;DHT22;1588;50.892;7.082;2023-03-03T00:32:42;-0.80;99.90
3156;DHT22;1588;50.892;7.082;2023-03-03T00:37:54;-0.80;99.90
3156;DHT22;1588;50.892;7.082;2023-03-03T00:42:58;-0.90;99.90
3156;DHT22;1588;50.892;7.082;2023-03-03T00:48:18;-1.00;99.90
3156;DHT22;1588;50.892;7.082;2023-03-03T00:53:23;-1.10;99.90
3156;DHT22;1588;50.892;7.082;2023-03-03T00:58:27;-1.10;99.90
3156;DHT22;1588;50.892;7.082;2023-03-03T01:03:31;-1.10;99.90
3156;DHT22;1588;50.892;7.082;2023-03-03T01:08:34;-1.20;99.90
3156;DHT22;1588;50.892;7.082;2023-03-03T01:13:39;-1.30;99.90
3156;DHT22;1588;50.892;7.082;2023-03-03T01:18:42;-1.30;99.90
3156;DHT22;1588;50.892;7.082;2023-03-03T01:23:46;-1.40;99.90
3156;DHT22;1588;50.892;7.082;2023-03-03T01:28:49;-1.40;99.90
3156;DHT22;1588;50.892;7.082;2023-03-03T01:33:51;-1.40;99.90
3156;DHT22;1588;50.892;7.082;2023-03-03T01:38:55;-1.50;99.90
3156;DHT22;1588;50.892;7.082;2023-03-03T01:43:57;-1.40;99.90
3156;DHT22;1588;50.892;7.082;2023-03-03T01:49:02;-1.20;99.90
3156;DHT22;1588;50.892;7.082;2023-03-03T01:54:11;-1.20;99.90
3156;DHT22;1588;50.892;7.082;2023-03-03T01:59:18;-1.10;99.90
3156;DHT22;1588;50.892;7.082;2023-03-03T02:04:22;-1.10;99.90
3156;DHT22;1588;50.892;7.082;2023-03-03T02:09:32;-1.10;99.90
3156;DHT22;1588;50.892;7.082;2023-03-03T02:14:38;-1.00;99.90
3156;DHT22;1588;50.892;7.082;2023-03-03T02:19:46;-1.10;99.90
3156;DHT22;1588;50.892;7.082;2023-03-03T02:24:56;-1.00;99.90
3156;DHT22;1588;50.892;7.082;2023-03-03T02:30:12;-0.90;99.90
3156;DHT22;1588;50.892;7.082;2023-03-03T02:35:29;-0.70;99.90
3156;DHT22;1588;50.892;7.082;2023-03-03T02:40:37;-0.50;99.90
3156;DHT22;1588;50.892;7.082;2023-03-03T02:45:44;-0.40;99.90
3156;DHT22;1588;50.892;7.082;2023-03-03T02:50:46;-0.50;99.90
3156;DHT22;1588;50.892;7.082;2023-03-03T02:55:48;-0.60;99.90
3156;DHT22;1588;50.892;7.082;2023-03-03T03:00:52;-0.80;99.90
3156;DHT22;1588;50.892;7.082;2023-03-03T03:05:55;-0.80;99.90
3156;DHT22;1588;50.892;7.082;2023-03-03T03:10:58;-0.90;99.90
3156;DHT22;1588;50.892;7.082;2023-03-03T03:16:01;-1.00;99.90
3156;DHT22;1588;50.892;7.082;2023-03-03T03:21:06;-1.10;99.90
3156;DHT22;1588;50.892;7.082;2023-03-03T03:26:08;-1.00;99.90
3156;DHT22;1588;50.892;7.082;2023-03-03T03:31:12;-1.10;99.90
3156;DHT22;1588;50.892;7.082;2023-03-03T03:36:15;-1.10;99.90
3156;DHT22;1588;50.892;7.082;2023-03-03T03:41:17;-1.10;99.90
3156;DHT22;1588;50.892;7.082;2023-03-03T03:46:21;-1.20;99.90
3156;DHT22;1588;50.892;7.082;2023-03-03T03:51:23;-1.20;99.90
3156;DHT22;1588;50.892;7.082;2023-03-03T03:56:29;-1.40;99.90
3156;DHT22;1588;50.892;7.082;2023-03-03T04:01:32;-1.50;99.90
3156;DHT22;1588;50.892;7.082;2023-03-03T04:06:34;-1.70;99.90
3156;DHT22;1588;50.892;7.082;2023-03-03T04:11:37;-1.70;99.90
3156;DHT22;1588;50.892;7.082;2023-03-03T04:16:40;-1.70;99.90
3156;DHT22;1588;50.892;7.082;2023-03-03T04:21:43;-1.70;99.90
3156;DHT22;1588;50.892;7.082;2023-03-03T04:26:45;-1.80;99.90
3156;DHT22;1588;50.892;7.082;2023-03-03T04:31:48;-1.80;99.90
3156;DHT22;1588;50.892;7.082;2023-03-03T04:36:51;-1.90;99.90
3156;DHT22;1588;50.892;7.082;2023-03-03T04:41:53;-1.90;99.90
3156;DHT22;1588;50.892;7.082;2023-03-03T04:46:57;-1.80;99.90
3156;DHT22;1588;50.892;7.082;2023-03-03T04:52:00;-1.80;99.90
3156;DHT22;1588;50.892;7.082;2023-03-03T04:57:02;-1.90;99.90
3156;DHT22;1588;50.892;7.082;2023-03-03T05:02:06;-1.90;99.90
3156;DHT22;1588;50.892;7.082;2023-03-03T05:07:08;-2.00;99.90
3156;DHT22;1588;50.892;7.082;2023-03-03T05:12:10;-1.90;99.90
3156;DHT22;1588;50.892;7.082;2023-03-03T05:17:14;-1.90;99.90
3156;DHT22;1588;50.892;7.082;2023-03-03T05:22:16;-1.80;99.90
3156;DHT22;1588;50.892;7.082;2023-03-03T05:27:20;-1.60;99.90
3156;DHT22;1588;50.892;7.082;2023-03-03T05:32:23;-1.30;99.90
3156;DHT22;1588;50.892;7.082;2023-03-03T05:37:25;-1.00;99.90
3156;DHT22;1588;50.892;7.082;2023-03-03T05:42:28;-0.90;99.90
3156;DHT22;1588;50.892;7.082;2023-03-03T05:47:31;-0.70;99.90
3156;DHT22;1588;50.892;7.082;2023-03-03T05:52:34;-0.60;99.90
3156;DHT22;1588;50.892;7.082;2023-03-03T05:57:36;-0.50;99.90
3156;DHT22;1588;50.892;7.082;2023-03-03T06:02:43;-0.40;99.90
3156;DHT22;1588;50.892;7.082;2023-03-03T06:07:46;-0.30;99.90
3156;DHT22;1588;50.892;7.082;2023-03-03T06:12:49;-0.20;99.90
3156;DHT22;1588;50.892;7.082;2023-03-03T06:17:53;-0.10;99.90
3156;DHT22;1588;50.892;7.082;2023-03-03T06:22:55;-0.10;99.90
3156;DHT22;1588;50.892;7.082;2023-03-03T06:27:58;0.00;99.90
3156;DHT22;1588;50.892;7.082;2023-03-03T06:33:01;0.10;99.90
3156;DHT22;1588;50.892;7.082;2023-03-03T06:38:04;0.10;99.90
3156;DHT22;1588;50.892;7.082;2023-03-03T06:43:06;0.10;99.90
3156;DHT22;1588;50.892;7.082;2023-03-03T06:48:10;0.20;99.90
3156;DHT22;1588;50.892;7.082;2023-03-03T06:53:15;0.20;99.90
3156;DHT22;1588;50.892;7.082;2023-03-03T06:58:19;0.30;99.90
3156;DHT22;1588;50.892;7.082;2023-03-03T07:03:24;0.40;99.90
3156;DHT22;1588;50.892;7.082;2023-03-03T07:08:30;0.40;99.90
3156;DHT22;1588;50.892;7.082;2023-03-03T07:13:43;0.50;99.90
3156;DHT22;1588;50.892;7.082;2023-03-03T07:18:49;0.50;99.90
3156;DHT22;1588;50.892;7.082;2023-03-03T07:23:53;0.60;99.90
3156;DHT22;1588;50.892;7.082;2023-03-03T07:28:59;0.60;99.90
3156;DHT22;1588;50.892;7.082;2023-03-03T07:34:13;0.70;99.90
3156;DHT22;1588;50.892;7.082;2023-03-03T07:39:25;0.70;99.90
3156;DHT22;1588;50.892;7.082;2023-03-03T07:44:34;0.60;99.90
3156;DHT22;1588;50.892;7.082;2023-03-03T07:49:38;0.80;99.90
3156;DHT22;1588;50.892;7.082;2023-03-03T07:54:42;0.80;99.90
3156;DHT22;1588;50.892;7.082;2023-03-03T07:59:48;0.90;99.90
3156;DHT22;1588;50.892;7.082;2023-03-03T08:04:52;1.00;99.90
3156;DHT22;1588;50.892;7.082;2023-03-03T08:09:57;1.00;99.90
3156;DHT22;1588;50.892;7.082;2023-03-03T08:15:23;1.10;99.90
3156;DHT22;1588;50.892;7.082;2023-03-03T08:20:54;1.10;99.90
3156;DHT22;1588;50.892;7.082;2023-03-03T08:25:57;1.30;99.90
3156;DHT22;1588;50.892;7.082;2023-03-03T08:30:59;1.30;99.90
3156;DHT22;1588;50.892;7.082;2023-03-03T08:36:03;1.40;99.90
3156;DHT22;1588;50.892;7.082;2023-03-03T08:41:06;1.30;99.90
3156;DHT22;1588;50.892;7.082;2023-03-03T08:46:08;1.60;99.90
3156;DHT22;1588;50.892;7.082;2023-03-03T08:51:13;1.70;99.90
3156;DHT22;1588;50.892;7.082;2023-03-03T08:56:15;1.70;99.90
3156;DHT22;1588;50.892;7.082;2023-03-03T09:01:17;1.70;99.90
3156;DHT22;1588;50.892;7.082;2023-03-03T09:06:21;1.80;99.90
3156;DHT22;1588;50.892;7.082;2023-03-03T09:11:25;1.80;99.90
3156;DHT22;1588;50.892;7.082;2023-03-03T09:16:29;1.90;99.90
3156;DHT22;1588;50.892;7.082;2023-03-03T09:21:35;2.00;99.90
3156;DHT22;1588;50.892;7.082;2023-03-03T09:26:45;2.10;99.90
3156;DHT22;1588;50.892;7.082;2023-03-03T09:31:50;2.10;99.90
3156;DHT22;1588;50.892;7.082;2023-03-03T09:36:54;2.20;99.90
3156;DHT22;1588;50.892;7.082;2023-03-03T09:42:19;2.10;99.90
3156;DHT22;1588;50.892;7.082;2023-03-03T09:47:41;2.30;99.90
3156;DHT22;1588;50.892;7.082;2023-03-03T09:52:52;2.40;99.90
3156;DHT22;1588;50.892;7.082;2023-03-03T09:58:11;2.50;99.90
3156;DHT22;1588;50.892;7.082;2023-03-03T10:03:50;2.60;99.90
3156;DHT22;1588;50.892;7.082;2023-03-03T10:09:09;2.70;99.90
3156;DHT22;1588;50.892;7.082;2023-03-03T10:14:40;2.80;99.90
3156;DHT22;1588;50.892;7.082;2023-03-03T10:19:51;2.80;99.90
3156;DHT22;1588;50.892;7.082;2023-03-03T10:25:12;2.90;99.90
3156;DHT22;1588;50.892;7.082;2023-03-03T10:30:22;3.10;99.90
3156;DHT22;1588;50.892;7.082;2023-03-03T10:35:48;3.40;99.90
3156;DHT22;1588;50.892;7.082;2023-03-03T10:41:10;3.40;99.90
3156;DHT22;1588;50.892;7.082;2023-03-03T10:46:50;3.60;99.90
3156;DHT22;1588;50.892;7.082;2023-03-03T10:52:07;4.00;99.90
3156;DHT22;1588;50.892;7.082;2023-03-03T10:57:16;4.10;99.90
3156;DHT22;1588;50.892;7.082;2023-03-03T11:02:25;4.30;99.90
3156;DHT22;1588;50.892;7.082;2023-03-03T11:07:36;4.60;99.90
3156;DHT22;1588;50.892;7.082;2023-03-03T11:12:48;4.50;99.90
3156;DHT22;1588;50.892;7.082;2023-03-03T11:18:06;5.00;99.90
3156;DHT22;1588;50.892;7.082;2023-03-03T11:23:45;4.80;99.90
3156;DHT22;1588;50.892;7.082;2023-03-03T11:29:05;5.50;99.90
3156;DHT22;1588;50.892;7.082;2023-03-03T11:34:20;5.80;99.90
3156;DHT22;1588;50.892;7.082;2023-03-03T11:39:25;6.20;99.90
3156;DHT22;1588;50.892;7.082;2023-03-03T11:44:32;6.20;99.90
3156;DHT22;1588;50.892;7.082;2023-03-03T11:49:39;6.00;99.90
3156;DHT22;1588;50.892;7.082;2023-03-03T11:54:49;6.20;99.90
3156;DHT22;1588;50.892;7.082;2023-03-03T12:00:14;7.20;99.90
3156;DHT22;1588;50.892;7.082;2023-03-03T12:05:29;9.00;99.90
3156;DHT22;1588;50.892;7.082;2023-03-03T12:10:40;8.40;99.90
3156;DHT22;1588;50.892;7.082;2023-03-03T12:15:50;8.90;99.90
3156;DHT22;1588;50.892;7.082;2023-03-03T12:21:06;8.50;99.90
3156;DHT22;1588;50.892;7.082;2023-03-03T12:26:18;7.60;99.90
3156;DHT22;1588;50.892;7.082;2023-03-03T12:31:32;7.70;99.90
3156;DHT22;1588;50.892;7.082;2023-03-03T12:37:06;7.70;99.90
3156;DHT22;1588;50.892;7.082;2023-03-03T12:42:20;8.10;99.90
3156;DHT22;1588;50.892;7.082;2023-03-03T12:47:31;6.90;99.90
3156;DHT22;1588;50.892;7.082;2023-03-03T12:52:42;6.90;99.90
3156;DHT22;1588;50.892;7.082;2023-03-03T12:57:55;6.90;99.90
3156;DHT22;1588;50.892;7.082;2023-03-03T13:03:08;7.10;99.90
3156;DHT22;1588;50.892;7.082;2023-03-03T13:08:25;7.30;99.90
3156;DHT22;1588;50.892;7.082;2023-03-03T13:13:36;7.20;99.90
3156;DHT22;1588;50.892;7.082;2023-03-03T13:18:48;6.70;99.90
3156;DHT22;1588;50.892;7.082;2023-03-03T13:23:57;6.60;99.90
3156;DHT22;1588;50.892;7.082;2023-03-03T13:29:13;6.60;99.90
3156;DHT22;1588;50.892;7.082;2023-03-03T13:34:33;6.70;99.90
3156;DHT22;1588;50.892;7.082;2023-03-03T13:39:44;6.90;99.90
3156;DHT22;1588;50.892;7.082;2023-03-03T13:44:52;6.80;99.90
3156;DHT22;1588;50.892;7.082;2023-03-03T13:50:05;6.70;99.90
3156;DHT22;1588;50.892;7.082;2023-03-03T13:55:22;6.70;99.90
3156;DHT22;1588;50.892;7.082;2023-03-03T14:00:33;6.50;99.90
3156;DHT22;1588;50.892;7.082;2023-03-03T14:05:42;6.30;99.90
3156;DHT22;1588;50.892;7.082;2023-03-03T14:10:50;6.30;99.90
3156;DHT22;1588;50.892;7.082;2023-03-03T14:15:57;6.30;99.90
3156;DHT22;1588;50.892;7.082;2023-03-03T14:21:10;6.30;99.90
3156;DHT22;1588;50.892;7.082;2023-03-03T14:26:22;6.20;99.90
3156;DHT22;1588;50.892;7.082;2023-03-03T14:31:26;6.20;99.90
3156;DHT22;1588;50.892;7.082;2023-03-03T14:36:37;6.20;99.90
3156;DHT22;1588;50.892;7.082;2023-03-03T14:41:40;6.10;99.90
3156;DHT22;1588;50.892;7.082;2023-03-03T14:46:43;6.20;99.90
3156;DHT22;1588;50.892;7.082;2023-03-03T14:51:48;6.20;99.90
3156;DHT22;1588;50.892;7.082;2023-03-03T14:56:57;6.20;99.90
3156;DHT22;1588;50.892;7.082;2023-03-03T15:07:37;6.10;99.90
3156;DHT22;1588;50.892;7.082;2023-03-03T15:12:41;6.00;99.90
3156;DHT22;1588;50.892;7.082;2023-03-03T15:17:53;5.90;99.90
3156;DHT22;1588;50.892;7.082;2023-03-03T15:23:07;5.80;99.90
3156;DHT22;1588;50.892;7.082;2023-03-03T15:28:22;5.70;99.90
3156;DHT22;1588;50.892;7.082;2023-03-03T15:33:31;5.70;99.90
3156;DHT22;1588;50.892;7.082;2023-03-03T15:38:45;5.60;99.90
3156;DHT22;1588;50.892;7.082;2023-03-03T15:43:57;5.60;99.90
3156;DHT22;1588;50.892;7.082;2023-03-03T15:49:12;5.50;99.90
3156;DHT22;1588;50.892;7.082;2023-03-03T15:54:29;5.30;99.90
3156;DHT22;1588;50.892;7.082;2023-03-03T16:00:02;5.30;99.90
3156;DHT22;1588;50.892;7.082;2023-03-03T16:05:14;5.10;99.90
3156;DHT22;1588;50.892;7.082;2023-03-03T16:10:25;4.90;99.90
3156;DHT22;1588;50.892;7.082;2023-03-03T16:15:50;4.80;99.90
3156;DHT22;1588;50.892;7.082;2023-03-03T16:21:06;4.70;99.90
3156;DHT22;1588;50.892;7.082;2023-03-03T16:26:30;4.60;99.90
3156;DHT22;1588;50.892;7.082;2023-03-03T16:31:36;4.50;99.90
3156;DHT22;1588;50.892;7.082;2023-03-03T16:36:53;4.40;99.90
3156;DHT22;1588;50.892;7.082;2023-03-03T16:42:04;4.30;99.90
3156;DHT22;1588;50.892;7.082;2023-03-03T16:47:36;4.20;99.90
3156;DHT22;1588;50.892;7.082;2023-03-03T16:52:49;4.10;99.90
3156;DHT22;1588;50.892;7.082;2023-03-03T16:58:19;4.00;99.90
3156;DHT22;1588;50.892;7.082;2023-03-03T17:03:53;3.90;99.90
3156;DHT22;1588;50.892;7.082;2023-03-03T17:15:03;3.60;99.90
3156;DHT22;1588;50.892;7.082;2023-03-03T17:20:29;3.60;99.90
3156;DHT22;1588;50.892;7.082;2023-03-03T17:25:38;3.50;99.90
3156;DHT22;1588;50.892;7.082;2023-03-03T17:30:52;3.40;99.90
3156;DHT22;1588;50.892;7.082;2023-03-03T17:36:12;3.30;99.90
3156;DHT22;1588;50.892;7.082;2023-03-03T17:41:21;3.20;99.90
3156;DHT22;1588;50.892;7.082;2023-03-03T17:46:33;3.10;99.90
3156;DHT22;1588;50.892;7.082;2023-03-03T17:52:05;3.00;99.90
3156;DHT22;1588;50.892;7.082;2023-03-03T17:57:21;3.00;99.90
3156;DHT22;1588;50.892;7.082;2023-03-03T18:08:25;2.80;99.90
3156;DHT22;1588;50.892;7.082;2023-03-03T18:13:55;2.70;99.90
3156;DHT22;1588;50.892;7.082;2023-03-03T18:19:16;2.60;99.90
3156;DHT22;1588;50.892;7.082;2023-03-03T18:24:29;2.40;99.90
3156;DHT22;1588;50.892;7.082;2023-03-03T18:29:34;2.20;99.90
3156;DHT22;1588;50.892;7.082;2023-03-03T18:34:39;2.10;99.90
3156;DHT22;1588;50.892;7.082;2023-03-03T18:39:43;2.00;99.90
3156;DHT22;1588;50.892;7.082;2023-03-03T18:44:46;1.80;99.90
3156;DHT22;1588;50.892;7.082;2023-03-03T18:49:55;1.60;99.90
3156;DHT22;1588;50.892;7.082;2023-03-03T18:55:24;1.40;99.90
3156;DHT22;1588;50.892;7.082;2023-03-03T19:00:28;1.20;99.90
3156;DHT22;1588;50.892;7.082;2023-03-03T19:05:36;1.00;99.90
3156;DHT22;1588;50.892;7.082;2023-03-03T19:10:53;0.90;99.90
3156;DHT22;1588;50.892;7.082;2023-03-03T19:15:57;0.80;99.90
3156;DHT22;1588;50.892;7.082;2023-03-03T19:21:04;0.60;99.90
3156;DHT22;1588;50.892;7.082;2023-03-03T19:26:47;0.50;99.90
3156;DHT22;1588;50.892;7.082;2023-03-03T19:32:00;0.30;99.90
3156;DHT22;1588;50.892;7.082;2023-03-03T19:37:22;0.10;99.90
3156;DHT22;1588;50.892;7.082;2023-03-03T19:42:37;0.00;99.90
3156;DHT22;1588;50.892;7.082;2023-03-03T19:47:47;0.00;99.90
3156;DHT22;1588;50.892;7.082;2023-03-03T19:53:00;-0.20;99.90
3156;DHT22;1588;50.892;7.082;2023-03-03T19:58:14;-0.30;99.90
3156;DHT22;1588;50.892;7.082;2023-03-03T20:03:53;-0.30;99.90
3156;DHT22;1588;50.892;7.082;2023-03-03T20:09:03;-0.40;99.90
3156;DHT22;1588;50.892;7.082;2023-03-03T20:14:20;-0.50;99.90
3156;DHT22;1588;50.892;7.082;2023-03-03T20:19:38;-0.60;99.90
3156;DHT22;1588;50.892;7.082;2023-03-03T20:25:06;-0.60;99.90
3156;DHT22;1588;50.892;7.082;2023-03-03T20:30:23;-0.70;99.90
3156;DHT22;1588;50.892;7.082;2023-03-03T20:35:38;-0.70;99.90
3156;DHT22;1588;50.892;7.082;2023-03-03T20:40:48;-0.70;99.90
3156;DHT22;1588;50.892;7.082;2023-03-03T20:45:59;-0.70;99.90
3156;DHT22;1588;50.892;7.082;2023-03-03T20:51:08;-0.80;99.90
3156;DHT22;1588;50.892;7.082;2023-03-03T20:56:21;-0.80;99.90
3156;DHT22;1588;50.892;7.082;2023-03-03T21:01:31;-0.90;99.90
3156;DHT22;1588;50.892;7.082;2023-03-03T21:06:42;-0.80;99.90
3156;DHT22;1588;50.892;7.082;2023-03-03T21:11:46;-0.80;99.90
3156;DHT22;1588;50.892;7.082;2023-03-03T21:16:49;-0.70;99.90
3156;DHT22;1588;50.892;7.082;2023-03-03T21:21:52;-0.60;99.90
3156;DHT22;1588;50.892;7.082;2023-03-03T21:26:57;-0.50;99.90
3156;DHT22;1588;50.892;7.082;2023-03-03T21:32:03;-0.30;99.90
3156;DHT22;1588;50.892;7.082;2023-03-03T21:37:09;-0.20;99.90
3156;DHT22;1588;50.892;7.082;2023-03-03T21:42:15;-0.10;99.90
3156;DHT22;1588;50.892;7.082;2023-03-03T21:47:20;-0.10;99.90
3156;DHT22;1588;50.892;7.082;2023-03-03T21:52:23;0.00;99.90
3156;DHT22;1588;50.892;7.082;2023-03-03T21:57:27;0.10;99.90
3156;DHT22;1588;50.892;7.082;2023-03-03T22:02:29;0.20;99.90
3156;DHT22;1588;50.892;7.082;2023-03-03T22:07:31;0.30;99.90
3156;DHT22;1588;50.892;7.082;2023-03-03T22:12:35;0.30;99.90
3156;DHT22;1588;50.892;7.082;2023-03-03T22:17:41;0.40;99.90
3156;DHT22;1588;50.892;7.082;2023-03-03T22:22:43;0.40;99.90
3156;DHT22;1588;50.892;7.082;2023-03-03T22:27:47;0.50;99.90
3156;DHT22;1588;50.892;7.082;2023-03-03T22:32:49;0.60;99.90
3156;DHT22;1588;50.892;7.082;2023-03-03T22:37:54;0.70;99.90
3156;DHT22;1588;50.892;7.082;2023-03-03T22:42:59;0.80;99.90
3156;DHT22;1588;50.892;7.082;2023-03-03T22:48:02;0.90;99.90
3156;DHT22;1588;50.892;7.082;2023-03-03T22:53:04;1.00;99.90
3156;DHT22;1588;50.892;7.082;2023-03-03T22:58:09;1.00;99.90
3156;DHT22;1588;50.892;7.082;2023-03-03T23:03:12;1.10;99.90
3156;DHT22;1588;50.892;7.082;2023-03-03T23:08:16;1.20;99.90
3156;DHT22;1588;50.892;7.082;2023-03-03T23:13:21;1.10;99.90
3156;DHT22;1588;50.892;7.082;2023-03-03T23:18:25;1.10;99.90
3156;DHT22;1588;50.892;7.082;2023-03-03T23:23:28;1.20;99.90
3156;DHT22;1588;50.892;7.082;2023-03-03T23:28:31;1.10;99.90
3156;DHT22;1588;50.892;7.082;2023-03-03T23:33:34;1.10;99.90
3156;DHT22;1588;50.892;7.082;2023-03-03T23:38:46;1.10;99.90
3156;DHT22;1588;50.892;7.082;2023-03-03T23:43:50;1.10;99.90
3156;DHT22;1588;50.892;7.082;2023-03-03T23:48:52;1.10;99.90
3156;DHT22;1588;50.892;7.082;2023-03-03T23:53:54;1.00;99.90
3156;DHT22;1588;50.892;7.082;2023-03-03T23:58:58;1.10;99.90
